Time;durP1;ratioP1;P1;durP2;ratioP2;P2;SDS_P1;SDS_P2;PMS_P1;PMS_P2;Temp;Humidity;BMP_temperature;BMP_pressure;BME280_temperature;BME280_humidity;BME280_pressure;Samples;Min_cycle;Max_cycle;Signal;HPM_P1;HPM_P2
2022/04/29 00:00:19;;;;;;;;;;;;;;;15.10;48.31;100783.09;4435447;32;34018;-81
2022/04/29 00:02:47;;;;;;;;;;;;;;;15.25;48.39;100781.62;4437731;32;33346;-81
2022/04/29 00:05:16;;;;;;;;;;;;;;;15.22;48.74;100779.25;4435140;32;33511;-82
2022/04/29 00:07:50;;;;;;;;;;;;;;;15.30;48.69;100780.22;4431849;32;35008;-84
2022/04/29 00:10:18;;;;;;;;;;;;;;;15.27;49.53;100782.31;4436542;32;33876;-79
2022/04/29 00:12:47;;;;;;;;;;;;;;;15.12;49.32;100783.81;4438013;32;32836;-83
2022/04/29 00:15:15;;;;;;;;;;;;;;;15.11;48.60;100782.13;4424638;32;34293;-81
2022/04/29 00:17:43;;;;;;;;;;;;;;;15.04;48.90;100781.88;4451252;32;34429;-82
2022/04/29 00:20:10;;;;;;;;;;;;;;;14.76;49.67;100782.84;4437309;32;34074;-83
2022/04/29 00:22:38;;;;;;;;;;;;;;;14.93;48.86;100783.91;4435923;32;32808;-81
2022/04/29 00:25:06;;;;;;;;;;;;;;;14.95;49.27;100774.72;4438300;32;31749;-80
2022/04/29 00:27:33;;;;;;;;;;;;;;;14.89;49.59;100778.00;4440277;32;34590;-82
2022/04/29 00:30:01;;;;;;;;;;;;;;;14.87;49.29;100779.16;4438333;32;34721;-82
2022/04/29 00:32:28;;;;;;;;;;;;;;;14.80;49.07;100773.53;4440021;32;32592;-82
2022/04/29 00:34:56;;;;;;;;;;;;;;;14.86;48.78;100778.28;4412211;32;32374;-81
2022/04/29 00:37:23;;;;;;;;;;;;;;;14.58;48.85;100779.25;4435844;32;34761;-80
2022/04/29 00:39:51;;;;;;;;;;;;;;;14.52;48.29;100768.28;4434969;32;34690;-82
2022/04/29 00:42:21;;;;;;;;;;;;;;;14.62;48.89;100775.28;4426196;32;33360;-81
2022/04/29 00:44:49;;;;;;;;;;;;;;;14.44;50.83;100774.38;4437348;32;34047;-83
2022/04/29 00:47:18;;;;;;;;;;;;;;;14.68;49.79;100777.41;4440345;32;33268;-82
2022/04/29 00:49:45;;;;;;;;;;;;;;;14.62;50.05;100775.28;4425910;32;33665;-83
2022/04/29 00:52:15;;;;;;;;;;;;;;;14.76;49.48;100779.34;4422765;32;34178;-81
2022/04/29 00:54:43;;;;;;;;;;;;;;;14.75;49.42;100786.50;4448761;32;33634;-81
2022/04/29 00:57:13;;;;;;;;;;;;;;;14.71;49.71;100777.09;4437676;32;35058;-83
2022/04/29 00:59:53;;;;;;;;;;;;;;;14.61;49.92;100778.97;4428571;32;34129;-82
2022/04/29 01:02:20;;;;;;;;;;;;;;;14.55;50.04;100782.22;4424991;32;31965;-81
2022/04/29 01:04:52;;;;;;;;;;;;;;;14.54;50.31;100785.03;4423063;32;34314;-81
2022/04/29 01:07:19;;;;;;;;;;;;;;;14.46;50.38;100779.59;4423509;32;34863;-81
2022/04/29 01:09:47;;;;;;;;;;;;;;;14.43;50.35;100783.38;4438204;32;34471;-82
2022/04/29 01:12:14;;;;;;;;;;;;;;;14.33;50.73;100781.72;4437877;32;31087;-82
2022/04/29 01:14:44;;;;;;;;;;;;;;;14.29;50.84;100784.81;4436540;32;34328;-81
2022/04/29 01:17:11;;;;;;;;;;;;;;;14.16;50.90;100778.91;4434605;32;35026;-81
2022/04/29 01:19:39;;;;;;;;;;;;;;;14.17;50.94;100781.44;4434464;32;35547;-82
2022/04/29 01:22:07;;;;;;;;;;;;;;;14.17;51.02;100777.91;4438343;32;32216;-83
2022/04/29 01:24:34;;;;;;;;;;;;;;;14.14;50.74;100768.34;4439000;32;33906;-81
2022/04/29 01:27:10;;;;;;;;;;;;;;;14.10;50.95;100768.75;4433116;32;34605;-81
2022/04/29 01:29:39;;;;;;;;;;;;;;;14.05;50.79;100779.91;4437800;32;34675;-80
2022/04/29 01:32:11;;;;;;;;;;;;;;;13.90;50.68;100770.62;4434098;32;33147;-82
2022/04/29 01:34:39;;;;;;;;;;;;;;;13.63;51.28;100769.63;4423743;32;34650;-81
2022/04/29 01:37:06;;;;;;;;;;;;;;;13.62;50.85;100770.62;4440137;32;35644;-81
2022/04/29 01:39:34;;;;;;;;;;;;;;;13.73;50.62;100765.13;4441584;32;34251;-81
2022/04/29 01:42:02;;;;;;;;;;;;;;;13.77;50.48;100770.06;4439574;32;33703;-82
2022/04/29 01:44:30;;;;;;;;;;;;;;;13.78;50.45;100765.56;4440226;32;33589;-81
2022/04/29 01:46:57;;;;;;;;;;;;;;;13.59;50.86;100766.37;4440107;32;35517;-80
2022/04/29 01:49:25;;;;;;;;;;;;;;;13.63;51.04;100764.28;4435863;32;34572;-80
2022/04/29 01:51:54;;;;;;;;;;;;;;;13.48;51.70;100761.19;4451975;32;33060;-80
2022/04/29 01:54:21;;;;;;;;;;;;;;;13.31;52.22;100767.19;4434428;32;35017;-80
2022/04/29 01:56:52;;;;;;;;;;;;;;;13.02;52.83;100768.97;4433515;32;34529;-82
2022/04/29 01:59:20;;;;;;;;;;;;;;;13.35;52.19;100765.09;4436324;32;34259;-81
2022/04/29 02:01:48;;;;;;;;;;;;;;;13.42;51.83;100761.72;4437925;32;32974;-83
2022/04/29 02:04:16;;;;;;;;;;;;;;;13.39;52.27;100763.84;4436216;32;33575;-81
2022/04/29 02:06:44;;;;;;;;;;;;;;;13.39;52.18;100763.84;4425679;32;34528;-80
2022/04/29 02:09:12;;;;;;;;;;;;;;;13.35;52.20;100762.44;4433398;32;34445;-81
2022/04/29 02:11:40;;;;;;;;;;;;;;;13.31;52.02;100756.50;4434816;32;33381;-81
2022/04/29 02:14:09;;;;;;;;;;;;;;;13.34;52.07;100771.44;4437696;32;35187;-83
2022/04/29 02:16:37;;;;;;;;;;;;;;;13.34;51.99;100766.94;4441981;32;35717;-81
2022/04/29 02:19:06;;;;;;;;;;;;;;;13.33;51.84;100757.22;4434370;32;34185;-82
2022/04/29 02:21:33;;;;;;;;;;;;;;;13.18;52.95;100765.75;4451897;32;32874;-80
2022/04/29 02:24:01;;;;;;;;;;;;;;;13.18;53.12;100750.59;4460007;32;33337;-81
2022/04/29 02:26:29;;;;;;;;;;;;;;;13.24;52.93;100762.56;4429954;32;36357;-80
2022/04/29 02:28:56;;;;;;;;;;;;;;;13.22;53.28;100759.19;4453354;32;34475;-81
2022/04/29 02:31:24;;;;;;;;;;;;;;;13.17;53.65;100762.25;4428475;32;32578;-81
2022/04/29 02:33:52;;;;;;;;;;;;;;;13.11;53.79;100772.66;4452946;32;34446;-81
2022/04/29 02:36:19;;;;;;;;;;;;;;;13.16;53.25;100770.41;4429037;32;35280;-82
2022/04/29 02:38:47;;;;;;;;;;;;;;;13.09;52.92;100770.13;4454271;32;33568;-80
2022/04/29 02:41:16;;;;;;;;;;;;;;;13.09;52.38;100764.78;4435248;32;33295;-80
2022/04/29 02:43:44;;;;;;;;;;;;;;;13.08;51.86;100768.44;4453398;32;34137;-80
2022/04/29 02:46:11;;;;;;;;;;;;;;;13.09;51.57;100769.25;4423742;32;34934;-81
2022/04/29 02:48:39;;;;;;;;;;;;;;;12.97;52.13;100765.87;4449628;32;33924;-80
2022/04/29 02:51:07;;;;;;;;;;;;;;;12.89;52.29;100760.31;4439131;32;31547;-81
2022/04/29 02:53:36;;;;;;;;;;;;;;;12.80;52.47;100755.81;4450003;32;34836;-79
2022/04/29 02:56:03;;;;;;;;;;;;;;;12.49;52.87;100767.44;4436720;32;35723;-81
2022/04/29 02:58:31;;;;;;;;;;;;;;;12.77;52.38;100766.72;4427428;32;35420;-80
2022/04/29 03:00:59;;;;;;;;;;;;;;;12.50;52.80;100762.97;4439097;32;33038;-80
2022/04/29 03:03:27;;;;;;;;;;;;;;;12.69;51.93;100765.72;4452788;32;33751;-79
2022/04/29 03:05:55;;;;;;;;;;;;;;;12.64;51.57;100767.94;4419825;32;35091;-81
2022/04/29 03:08:22;;;;;;;;;;;;;;;12.58;51.55;100763.97;4438570;32;34696;-79
2022/04/29 03:10:50;;;;;;;;;;;;;;;12.77;51.07;100760.56;4439761;32;34189;-79
2022/04/29 03:13:18;;;;;;;;;;;;;;;12.71;51.10;100767.28;4423502;32;34062;-80
2022/04/29 03:15:49;;;;;;;;;;;;;;;12.67;51.39;100768.50;4432001;32;35212;-80
2022/04/29 03:18:22;;;;;;;;;;;;;;;12.62;52.49;100775.25;4418900;32;34016;-81
2022/04/29 03:20:51;;;;;;;;;;;;;;;12.67;53.27;100776.53;4423257;32;33793;-82
2022/04/29 03:23:19;;;;;;;;;;;;;;;12.60;53.45;100771.88;4429524;32;34028;-80
2022/04/29 03:25:47;;;;;;;;;;;;;;;12.71;53.00;100779.78;4408092;32;33673;-80
2022/04/29 03:28:15;;;;;;;;;;;;;;;12.64;52.98;100775.94;4420996;32;34974;-81
2022/04/29 03:30:43;;;;;;;;;;;;;;;12.71;52.41;100772.63;4421136;32;33681;-79
2022/04/29 03:33:11;;;;;;;;;;;;;;;12.63;52.87;100772.44;4418679;32;34514;-79
2022/04/29 03:35:50;;;;;;;;;;;;;;;12.70;52.84;100773.59;4425414;32;34850;-79
2022/04/29 03:38:26;;;;;;;;;;;;;;;12.74;52.68;100768.84;4426415;32;34879;-79
2022/04/29 03:40:53;;;;;;;;;;;;;;;12.74;52.88;100772.34;4439352;32;33456;-78
2022/04/29 03:43:21;;;;;;;;;;;;;;;12.65;53.21;100775.81;4422517;32;33806;-80
2022/04/29 03:45:50;;;;;;;;;;;;;;;12.73;53.03;100773.31;4422732;32;34140;-78
2022/04/29 03:48:18;;;;;;;;;;;;;;;12.72;53.27;100771.66;4420850;32;33807;-80
2022/04/29 03:50:46;;;;;;;;;;;;;;;12.74;53.34;100771.53;4424376;32;32239;-80
2022/04/29 03:53:14;;;;;;;;;;;;;;;12.70;53.61;100778.09;4436727;32;34357;-80
2022/04/29 03:55:41;;;;;;;;;;;;;;;12.72;53.40;100776.13;4424653;32;35212;-80
2022/04/29 03:58:09;;;;;;;;;;;;;;;12.80;53.19;100776.31;4421776;32;33974;-80
2022/04/29 04:00:37;;;;;;;;;;;;;;;12.79;53.16;100782.63;4412800;32;33324;-79
2022/04/29 04:03:05;;;;;;;;;;;;;;;12.85;53.12;100780.25;4432037;32;34279;-79
2022/04/29 04:05:34;;;;;;;;;;;;;;;12.85;53.26;100784.78;4427976;32;35002;-80
2022/04/29 04:08:02;;;;;;;;;;;;;;;12.88;53.24;100787.16;4452006;32;35455;-81
2022/04/29 04:10:31;;;;;;;;;;;;;;;12.75;53.65;100789.22;4428133;32;35214;-82
2022/04/29 04:13:00;;;;;;;;;;;;;;;12.84;53.50;100783.09;4427841;32;35152;-81
2022/04/29 04:15:29;;;;;;;;;;;;;;;12.83;53.60;100784.88;4433456;32;33536;-81
2022/04/29 04:17:57;;;;;;;;;;;;;;;12.93;53.45;100783.09;4443791;32;33201;-81
2022/04/29 04:20:25;;;;;;;;;;;;;;;12.78;54.36;100780.94;4422749;32;33131;-81
2022/04/29 04:22:53;;;;;;;;;;;;;;;12.85;54.51;100787.44;4449957;32;33544;-80
2022/04/29 04:25:21;;;;;;;;;;;;;;;12.74;54.43;100788.38;4436372;32;34869;-80
2022/04/29 04:27:48;;;;;;;;;;;;;;;12.94;54.19;100786.66;4437440;32;33842;-83
2022/04/29 04:30:16;;;;;;;;;;;;;;;12.70;55.96;100792.28;4423545;32;32464;-80
2022/04/29 04:32:44;;;;;;;;;;;;;;;13.11;54.45;100794.88;4438073;32;33654;-82
2022/04/29 04:35:11;;;;;;;;;;;;;;;13.23;54.15;100799.09;4435524;32;35371;-81
2022/04/29 04:37:39;;;;;;;;;;;;;;;13.33;53.79;100799.97;4450956;32;33402;-83
2022/04/29 04:40:09;;;;;;;;;;;;;;;13.38;53.89;100805.75;4437147;32;32734;-81
2022/04/29 04:42:46;;;;;;;;;;;;;;;13.38;53.57;100803.09;4426814;32;33557;-81
2022/04/29 04:45:15;;;;;;;;;;;;;;;13.56;53.18;100804.09;4425015;32;36341;-81
2022/04/29 04:47:44;;;;;;;;;;;;;;;13.73;52.68;100807.91;4454077;32;34851;-80
2022/04/29 04:50:13;;;;;;;;;;;;;;;13.83;52.41;100806.09;4424222;32;33827;-84
2022/04/29 04:52:42;;;;;;;;;;;;;;;13.85;52.27;100802.28;4432667;32;34286;-81
2022/04/29 04:55:10;;;;;;;;;;;;;;;13.98;51.84;100808.19;4422434;32;36162;-81
2022/04/29 04:57:38;;;;;;;;;;;;;;;14.08;51.66;100811.75;4422399;32;32856;-81
2022/04/29 05:00:06;;;;;;;;;;;;;;;14.15;51.44;100807.47;4436834;32;34025;-80
2022/04/29 05:02:40;;;;;;;;;;;;;;;14.23;51.40;100804.16;4439525;32;33607;-79
2022/04/29 05:05:30;;;;;;;;;;;;;;;14.33;51.48;100807.66;4443538;32;35413;-81
2022/04/29 05:11:56;;;;;;;;;;;;;;;14.41;51.50;100800.56;4434575;32;34288;-82
2022/04/29 05:14:39;;;;;;;;;;;;;;;;;;;;;
2022/04/29 05:20:46;;;;;;;;;;;;;;;14.79;51.34;100813.84;4422127;32;35326;-82
2022/04/29 05:26:41;;;;;;;;;;;;;;;15.00;50.79;100817.16;4400596;32;34412;-82
2022/04/29 05:30:32;;;;;;;;;;;;;;;14.92;51.44;100819.75;4388326;32;35908;-82
2022/04/29 05:46:18;;;;;;;;;;;;;;;;;;;;;
2022/04/29 05:49:52;;;;;;;;;;;;;;;15.96;49.19;100805.69;4344440;32;33150;-82
2022/04/29 05:53:04;;;;;;;;;;;;;;;16.16;49.32;100809.91;4360667;32;33777;-84
2022/04/29 05:58:53;;;;;;;;;;;;;;;16.45;48.60;100805.16;4344549;32;34512;-81
2022/04/29 06:12:05;;;;;;;;;;;;;;;16.99;45.99;100822.75;4375236;32;33503;-81
2022/04/29 06:24:39;;;;;;;;;;;;;;;17.64;43.15;100828.25;4438678;32;34238;-82
2022/04/29 06:27:07;;;;;;;;;;;;;;;17.77;42.63;100825.94;4434466;32;33606;-82
2022/04/29 06:36:54;;;;;;;;;;;;;;;;;;;;;
2022/04/29 06:40:13;;;;;;;;;;;;;;;;;;;;;
2022/04/29 06:43:21;;;;;;;;;;;;;;;;;;;;;
2022/04/29 07:02:50;;;;;;;;;;;;;;;;;;;;;
2022/04/29 07:05:50;;;;;;;;;;;;;;;19.36;33.04;100813.34;4319719;33;33804;-82
2022/04/29 07:12:36;;;;;;;;;;;;;;;19.42;33.46;100813.47;4337481;33;33523;-83
2022/04/29 07:18:48;;;;;;;;;;;;;;;19.59;31.07;100815.06;4377606;32;33055;-80
2022/04/29 07:24:31;;;;;;;;;;;;;;;19.99;34.44;100817.50;4333493;32;36563;-80
2022/04/29 07:27:26;;;;;;;;;;;;;;;20.11;30.51;100818.78;4353199;32;35338;-81
2022/04/29 07:30:53;;;;;;;;;;;;;;;20.23;29.07;100814.66;4359883;32;34103;-82
2022/04/29 07:47:24;;;;;;;;;;;;;;;20.46;31.22;100810.03;4445040;32;35152;-83
2022/04/29 07:56:53;;;;;;;;;;;;;;;20.41;33.60;100812.47;4436730;32;30592;-83
2022/04/29 08:03:22;;;;;;;;;;;;;;;;;;;;;
2022/04/29 08:18:50;;;;;;;;;;;;;;;20.31;26.66;100805.63;4344415;32;33656;-83
2022/04/29 08:28:28;;;;;;;;;;;;;;;;;;;;;
2022/04/29 08:32:05;;;;;;;;;;;;;;;20.35;25.83;100801.53;4304231;33;35394;-77
2022/04/29 08:37:20;;;;;;;;;;;;;;;20.52;27.55;100799.34;4298081;33;33347;-81
2022/04/29 08:40:12;;;;;;;;;;;;;;;20.85;28.17;100794.44;4428775;26;35512;-82
2022/04/29 08:42:42;;;;;;;;;;;;;;;20.93;27.03;100789.81;4447324;32;33848;-80
2022/04/29 08:45:12;;;;;;;;;;;;;;;21.00;24.91;100789.91;4444553;32;32795;-81
2022/04/29 08:47:41;;;;;;;;;;;;;;;21.27;25.09;100786.53;4459716;32;34734;-80
2022/04/29 08:50:16;;;;;;;;;;;;;;;20.75;24.87;100786.59;4425616;32;35490;-81
2022/04/29 08:52:45;;;;;;;;;;;;;;;20.99;25.00;100788.22;4405140;32;33455;-81
2022/04/29 09:01:15;;;;;;;;;;;;;;;21.40;25.64;100784.81;4441199;32;34852;-81
2022/04/29 09:03:46;;;;;;;;;;;;;;;21.50;27.33;100774.53;4437500;32;34949;-81
2022/04/29 09:06:17;;;;;;;;;;;;;;;21.95;27.66;100768.81;4444855;32;32528;-81
2022/04/29 09:08:47;;;;;;;;;;;;;;;21.64;27.78;100764.69;4436912;32;33692;-82
2022/04/29 09:11:23;;;;;;;;;;;;;;;21.77;26.11;100764.84;4428033;32;36112;-81
2022/04/29 09:13:50;;;;;;;;;;;;;;;21.77;27.12;100771.12;4424408;32;33928;-82
2022/04/29 09:16:19;;;;;;;;;;;;;;;22.13;25.86;100765.63;4441793;32;33245;-82
2022/04/29 09:18:53;;;;;;;;;;;;;;;22.00;25.56;100762.81;4425376;32;33508;-82
2022/04/29 09:21:26;;;;;;;;;;;;;;;22.14;26.77;100757.31;4424705;32;36522;-82
2022/04/29 09:23:59;;;;;;;;;;;;;;;22.08;27.37;100760.78;4423134;32;34841;-81
2022/04/29 09:26:35;;;;;;;;;;;;;;;22.69;24.59;100753.78;4448237;32;33201;-82
2022/04/29 09:29:15;;;;;;;;;;;;;;;22.44;24.65;100750.69;4435999;32;33533;-82
2022/04/29 09:31:54;;;;;;;;;;;;;;;22.63;26.15;100749.16;4428857;32;34731;-82
2022/04/29 09:34:47;;;;;;;;;;;;;;;22.66;24.84;100748.78;4445480;32;34605;-81
2022/04/29 09:37:19;;;;;;;;;;;;;;;22.27;25.05;100753.88;4423858;32;33492;-81
2022/04/29 09:39:54;;;;;;;;;;;;;;;22.50;26.09;100755.34;4426900;32;34566;-82
2022/04/29 09:42:23;;;;;;;;;;;;;;;22.60;24.51;100749.56;4438324;32;33799;-82
2022/04/29 09:44:52;;;;;;;;;;;;;;;22.56;26.10;100745.56;4442669;32;35507;-81
2022/04/29 09:47:21;;;;;;;;;;;;;;;22.91;21.96;100744.50;4437686;32;32473;-81
2022/04/29 09:49:52;;;;;;;;;;;;;;;22.40;23.10;100751.25;4440930;32;33922;-82
2022/04/29 09:52:40;;;;;;;;;;;;;;;22.72;24.27;100747.94;4438504;32;35434;-82
2022/04/29 09:55:14;;;;;;;;;;;;;;;22.38;25.66;100753.34;4409828;32;33035;-82
2022/04/29 09:57:49;;;;;;;;;;;;;;;22.07;24.93;100747.41;4434596;32;32874;-82
2022/04/29 10:00:18;;;;;;;;;;;;;;;22.44;24.81;100744.41;4413225;32;35066;-81
2022/04/29 10:02:49;;;;;;;;;;;;;;;22.71;25.32;100741.72;4428323;32;35306;-82
2022/04/29 10:05:18;;;;;;;;;;;;;;;22.60;25.00;100738.69;4418060;32;34774;-82
2022/04/29 10:07:47;;;;;;;;;;;;;;;22.63;24.06;100730.16;4410183;32;33637;-82
2022/04/29 10:10:15;;;;;;;;;;;;;;;22.45;25.27;100733.38;4434916;32;32816;-82
2022/04/29 10:12:47;;;;;;;;;;;;;;;22.61;23.95;100730.38;4441814;32;33934;-82
2022/04/29 10:15:22;;;;;;;;;;;;;;;22.21;24.28;100728.41;4417858;32;33066;-82
2022/04/29 10:23:41;;;;;;;;;;;;;;;23.12;22.74;100728.16;4421795;32;34812;-82
2022/04/29 10:26:10;;;;;;;;;;;;;;;23.49;22.35;100719.53;4418249;32;33066;-81
2022/04/29 10:28:39;;;;;;;;;;;;;;;23.18;20.87;100713.78;4417726;32;32046;-82
2022/04/29 10:31:07;;;;;;;;;;;;;;;23.46;20.11;100711.78;4428748;32;33325;-82
2022/04/29 10:33:37;;;;;;;;;;;;;;;23.03;23.95;100718.50;4445371;32;36647;-83
2022/04/29 10:36:14;;;;;;;;;;;;;;;23.28;23.32;100712.38;4404479;32;34473;-83
2022/04/29 10:38:46;;;;;;;;;;;;;;;23.48;24.58;100707.81;4417963;32;31905;-83
2022/04/29 10:41:13;;;;;;;;;;;;;;;23.92;24.60;100716.31;4442392;32;34341;-82
2022/04/29 10:43:51;;;;;;;;;;;;;;;24.11;25.47;100712.75;4453956;32;35820;-82
2022/04/29 10:46:35;;;;;;;;;;;;;;;23.96;26.02;100718.41;4436591;32;32047;-82
2022/04/29 10:49:22;;;;;;;;;;;;;;;24.05;26.59;100714.44;4429832;32;31933;-83
2022/04/29 10:51:49;;;;;;;;;;;;;;;24.34;25.37;100708.56;4431983;32;34059;-82
2022/04/29 10:54:53;;;;;;;;;;;;;;;24.12;27.48;100704.41;4447290;32;36017;-82
2022/04/29 10:57:39;;;;;;;;;;;;;;;23.95;27.23;100692.25;4418649;32;33216;-82
2022/04/29 11:00:11;;;;;;;;;;;;;;;24.02;29.79;100697.69;4440105;32;33837;-82
2022/04/29 11:02:44;;;;;;;;;;;;;;;24.19;23.76;100690.78;4443020;32;32931;-82
2022/04/29 11:05:38;;;;;;;;;;;;;;;24.29;23.87;100681.16;4436926;32;35960;-82
2022/04/29 11:08:07;;;;;;;;;;;;;;;23.43;25.81;100685.03;4447068;32;34703;-82
2022/04/29 11:10:55;;;;;;;;;;;;;;;24.10;27.74;100681.19;4444169;32;33086;-82
2022/04/29 11:13:44;;;;;;;;;;;;;;;23.37;24.89;100673.12;4446511;32;34426;-83
2022/04/29 11:16:14;;;;;;;;;;;;;;;23.75;27.75;100682.38;4431098;32;34111;-83
2022/04/29 11:18:44;;;;;;;;;;;;;;;23.15;26.50;100678.91;4418676;32;35565;-82
2022/04/29 11:26:48;;;;;;;;;;;;;;;25.67;24.52;100672.25;4441221;32;35173;-83
2022/04/29 11:29:24;;;;;;;;;;;;;;;26.54;23.60;100655.81;4399787;32;32929;-83
2022/04/29 11:31:54;;;;;;;;;;;;;;;27.08;24.01;100657.47;4430945;32;31760;-82
2022/04/29 11:34:53;;;;;;;;;;;;;;;27.61;23.13;100657.56;4450118;32;33443;-83
2022/04/29 11:37:24;;;;;;;;;;;;;;;28.02;22.48;100646.63;4446988;32;36284;-84
2022/04/29 11:39:54;;;;;;;;;;;;;;;27.63;20.77;100649.97;4442148;32;34810;-84
2022/04/29 11:42:22;;;;;;;;;;;;;;;26.92;21.13;100653.69;4408968;32;33734;-84
2022/04/29 11:44:55;;;;;;;;;;;;;;;26.29;23.20;100644.06;4457375;32;34111;-83
2022/04/29 11:47:24;;;;;;;;;;;;;;;26.02;22.70;100643.50;4420805;32;36500;-83
2022/04/29 11:49:52;;;;;;;;;;;;;;;25.17;24.90;100648.66;4423648;32;34355;-84
2022/04/29 11:52:24;;;;;;;;;;;;;;;25.19;23.88;100643.81;4453120;32;32423;-83
2022/04/29 11:54:59;;;;;;;;;;;;;;;24.93;24.78;100645.84;4451111;32;34772;-84
2022/04/29 11:57:30;;;;;;;;;;;;;;;24.48;23.47;100635.94;4455774;32;34981;-83
2022/04/29 11:59:58;;;;;;;;;;;;;;;24.15;24.33;100629.72;4441901;32;34580;-82
2022/04/29 12:02:44;;;;;;;;;;;;;;;24.55;24.18;100634.06;4439969;32;33001;-83
2022/04/29 12:05:13;;;;;;;;;;;;;;;24.84;24.35;100617.22;4426823;32;34593;-82
2022/04/29 12:07:42;;;;;;;;;;;;;;;25.05;25.84;100616.87;4430291;32;35981;-83
2022/04/29 12:10:19;;;;;;;;;;;;;;;25.38;26.00;100618.38;4431312;32;33986;-82
2022/04/29 12:12:48;;;;;;;;;;;;;;;25.40;25.03;100615.44;4446227;32;32762;-82
2022/04/29 12:15:17;;;;;;;;;;;;;;;25.08;22.45;100611.00;4421272;32;33397;-82
2022/04/29 12:17:49;;;;;;;;;;;;;;;24.96;20.46;100612.75;4423392;32;34153;-83
2022/04/29 12:20:19;;;;;;;;;;;;;;;24.06;23.59;100617.38;4433723;32;33369;-83
2022/04/29 12:22:49;;;;;;;;;;;;;;;23.52;24.81;100618.62;4420886;32;33261;-83
2022/04/29 12:25:46;;;;;;;;;;;;;;;24.22;27.00;100611.50;4450659;32;34062;-82
2022/04/29 12:28:18;;;;;;;;;;;;;;;24.95;26.86;100609.19;4444601;32;34281;-83
2022/04/29 12:36:45;;;;;;;;;;;;;;;25.83;22.42;100587.22;4434929;32;32843;-83
2022/04/29 12:39:16;;;;;;;;;;;;;;;25.91;22.69;100594.31;4436725;32;34913;-84
2022/04/29 12:41:44;;;;;;;;;;;;;;;25.07;23.06;100598.44;4436191;32;34001;-83
2022/04/29 12:47:24;;;;;;;;;;;;;;;24.80;24.62;100594.19;4413169;32;35411;-83
2022/04/29 12:49:52;;;;;;;;;;;;;;;25.13;24.74;100592.13;4398411;32;35077;-83
2022/04/29 12:52:21;;;;;;;;;;;;;;;25.24;23.81;100586.00;4361836;32;34534;-83
2022/04/29 12:54:49;;;;;;;;;;;;;;;25.41;24.09;100579.78;4386936;32;33040;-83
2022/04/29 12:57:16;;;;;;;;;;;;;;;25.36;24.03;100579.63;4398123;32;34800;-83
2022/04/29 12:59:45;;;;;;;;;;;;;;;25.21;22.48;100579.09;4405769;32;36636;-83
2022/04/29 13:02:16;;;;;;;;;;;;;;;24.66;23.12;100576.25;4392123;32;34849;-83
2022/04/29 13:04:45;;;;;;;;;;;;;;;24.63;21.09;100573.97;4388737;32;32842;-83
2022/04/29 13:07:13;;;;;;;;;;;;;;;24.08;23.21;100569.09;4408518;32;34886;-83
2022/04/29 13:09:40;;;;;;;;;;;;;;;24.65;21.77;100560.97;4406400;32;34836;-83
2022/04/29 13:12:28;;;;;;;;;;;;;;;25.31;20.05;100560.38;4400357;32;33349;-83
2022/04/29 13:14:56;;;;;;;;;;;;;;;25.35;24.35;100556.19;4407843;32;32691;-82
2022/04/29 13:17:29;;;;;;;;;;;;;;;25.43;20.29;100555.91;4402313;32;34064;-82
2022/04/29 13:19:57;;;;;;;;;;;;;;;25.10;20.22;100555.28;4398535;32;35346;-83
2022/04/29 13:22:24;;;;;;;;;;;;;;;24.67;23.92;100556.97;4406717;32;34569;-83
2022/04/29 13:24:53;;;;;;;;;;;;;;;24.76;23.63;100544.78;4411456;32;32148;-83
2022/04/29 13:27:21;;;;;;;;;;;;;;;24.90;22.95;100551.00;4411858;32;34985;-83
2022/04/29 13:29:48;;;;;;;;;;;;;;;24.80;24.29;100548.75;4409962;32;34005;-83
2022/04/29 13:32:16;;;;;;;;;;;;;;;24.92;24.28;100535.28;4433290;32;33786;-83
2022/04/29 13:34:45;;;;;;;;;;;;;;;25.84;20.62;100528.09;4412540;32;32039;-83
2022/04/29 13:37:13;;;;;;;;;;;;;;;25.43;21.56;100533.28;4459089;32;33967;-83
2022/04/29 13:39:43;;;;;;;;;;;;;;;27.00;20.83;100528.59;4431019;32;35105;-83
2022/04/29 13:42:12;;;;;;;;;;;;;;;27.50;20.44;100535.37;4415168;32;34562;-84
2022/04/29 13:44:48;;;;;;;;;;;;;;;27.56;20.29;100526.25;4427611;32;33374;-83
2022/04/29 13:47:18;;;;;;;;;;;;;;;27.15;19.38;100520.81;4432336;32;32970;-82
2022/04/29 13:49:46;;;;;;;;;;;;;;;26.27;20.84;100524.28;4416068;32;34907;-82
2022/04/29 13:55:16;;;;;;;;;;;;;;;26.57;20.93;100516.16;4437303;32;33154;-81
2022/04/29 13:57:54;;;;;;;;;;;;;;;26.50;19.78;100515.41;4435352;32;33110;-82
2022/04/29 14:00:22;;;;;;;;;;;;;;;25.06;21.12;100515.09;4426883;32;35097;-82
2022/04/29 14:02:51;;;;;;;;;;;;;;;24.77;24.08;100524.69;4444503;32;34581;-82
2022/04/29 14:05:19;;;;;;;;;;;;;;;24.43;22.74;100510.59;4434536;32;31802;-83
2022/04/29 14:07:48;;;;;;;;;;;;;;;24.71;23.51;100513.81;4449608;32;34534;-82
2022/04/29 14:10:19;;;;;;;;;;;;;;;24.75;21.65;100509.62;4414599;32;35132;-82
2022/04/29 14:12:49;;;;;;;;;;;;;;;24.62;21.79;100515.97;4450023;32;34514;-83
2022/04/29 14:15:17;;;;;;;;;;;;;;;24.41;22.43;100508.09;4426034;32;31875;-83
2022/04/29 14:17:44;;;;;;;;;;;;;;;24.64;24.17;100508.44;4433660;32;33593;-82
2022/04/29 14:20:12;;;;;;;;;;;;;;;24.77;20.43;100510.25;4423251;32;35401;-83
2022/04/29 14:22:48;;;;;;;;;;;;;;;24.71;23.88;100503.78;4428919;32;35285;-83
2022/04/29 14:25:16;;;;;;;;;;;;;;;24.46;23.45;100504.75;4436231;32;33211;-83
2022/04/29 14:27:44;;;;;;;;;;;;;;;24.52;24.23;100509.28;4410700;32;33172;-82
2022/04/29 14:30:13;;;;;;;;;;;;;;;24.63;19.80;100503.22;4457792;32;35071;-82
2022/04/29 14:32:41;;;;;;;;;;;;;;;24.51;24.55;100497.59;4427737;32;34655;-82
2022/04/29 14:35:10;;;;;;;;;;;;;;;24.41;24.79;100509.97;4420158;32;32788;-82
2022/04/29 14:37:39;;;;;;;;;;;;;;;24.47;25.22;100500.97;4440866;32;33794;-82
2022/04/29 14:40:18;;;;;;;;;;;;;;;24.44;25.95;100498.66;4443938;32;35107;-82
2022/04/29 14:42:46;;;;;;;;;;;;;;;24.40;25.05;100495.56;4418744;32;34715;-83
2022/04/29 14:45:14;;;;;;;;;;;;;;;24.49;24.76;100496.12;4451610;32;32668;-82
2022/04/29 14:48:03;;;;;;;;;;;;;;;24.45;24.28;100489.47;4431656;32;32879;-82
2022/04/29 14:50:31;;;;;;;;;;;;;;;24.52;24.67;100485.66;4434333;32;36115;-82
2022/04/29 14:52:58;;;;;;;;;;;;;;;24.54;24.45;100491.75;4415542;32;33474;-82
2022/04/29 14:55:26;;;;;;;;;;;;;;;24.16;25.85;100487.25;4431498;32;33529;-82
2022/04/29 14:57:54;;;;;;;;;;;;;;;24.37;24.47;100487.81;4431511;32;33520;-82
2022/04/29 15:00:22;;;;;;;;;;;;;;;24.52;25.27;100490.25;4433220;32;34965;-82
2022/04/29 15:02:50;;;;;;;;;;;;;;;24.38;25.17;100483.22;4434549;32;34241;-82
2022/04/29 15:05:27;;;;;;;;;;;;;;;24.49;25.06;100480.66;4414696;32;31772;-82
2022/04/29 15:07:57;;;;;;;;;;;;;;;24.33;25.60;100477.56;4430894;32;33380;-83
2022/04/29 15:16:06;;;;;;;;;;;;;;;25.02;25.36;100462.94;4453419;32;32447;-82
2022/04/29 15:18:36;;;;;;;;;;;;;;;25.70;25.03;100461.97;4411659;32;35024;-82
2022/04/29 15:21:24;;;;;;;;;;;;;;;26.63;23.42;100460.66;4428090;32;34985;-83
2022/04/29 15:23:53;;;;;;;;;;;;;;;27.32;21.63;100461.69;4440252;32;34671;-82
2022/04/29 15:26:21;;;;;;;;;;;;;;;26.97;20.53;100462.66;4429330;32;34160;-82
2022/04/29 15:28:50;;;;;;;;;;;;;;;26.51;21.00;100457.06;4432350;32;32470;-82
2022/04/29 15:31:26;;;;;;;;;;;;;;;26.71;20.77;100457.59;4449875;32;35472;-82
2022/04/29 15:33:55;;;;;;;;;;;;;;;26.35;22.68;100460.37;4433049;32;34198;-82
2022/04/29 15:36:23;;;;;;;;;;;;;;;26.26;21.95;100453.56;4423840;32;33401;-82
2022/04/29 15:38:53;;;;;;;;;;;;;;;26.00;23.36;100459.34;4431519;32;33759;-82
2022/04/29 15:41:20;;;;;;;;;;;;;;;25.90;23.66;100454.44;4431056;32;35669;-82
2022/04/29 15:43:48;;;;;;;;;;;;;;;25.69;23.79;100457.53;4441454;32;35034;-82
2022/04/29 15:46:18;;;;;;;;;;;;;;;24.82;23.45;100456.00;4426380;32;33752;-82
2022/04/29 15:48:46;;;;;;;;;;;;;;;25.06;23.22;100452.47;4432748;32;33905;-82
2022/04/29 15:51:13;;;;;;;;;;;;;;;24.58;23.82;100452.19;4452439;32;34909;-82
2022/04/29 15:53:41;;;;;;;;;;;;;;;24.45;23.71;100452.19;4419883;32;33418;-83
2022/04/29 15:56:12;;;;;;;;;;;;;;;24.58;24.39;100446.75;4430139;32;32888;-82